sensor_id;sensor_type;location;lat;lon;timestamp;temperature;humidity
12287;DHT22;6206;53.100;11.098;2022-07-09T00:01:25;15.30;99.90
12287;DHT22;6206;53.100;11.098;2022-07-09T00:03:53;15.50;99.90
12287;DHT22;6206;53.100;11.098;2022-07-09T00:06:20;15.50;99.90
12287;DHT22;6206;53.100;11.098;2022-07-09T00:08:47;15.50;99.90
12287;DHT22;6206;53.100;11.098;2022-07-09T00:11:13;15.50;99.90
12287;DHT22;6206;53.100;11.098;2022-07-09T00:13:40;15.50;99.90
12287;DHT22;6206;53.100;11.098;2022-07-09T00:16:07;15.80;99.90
12287;DHT22;6206;53.100;11.098;2022-07-09T00:18:33;16.50;99.90
12287;DHT22;6206;53.100;11.098;2022-07-09T00:21:02;15.80;99.90
12287;DHT22;6206;53.100;11.098;2022-07-09T00:23:28;15.80;99.90
12287;DHT22;6206;53.100;11.098;2022-07-09T00:25:55;16.00;99.90
12287;DHT22;6206;53.100;11.098;2022-07-09T00:28:22;15.90;99.90
12287;DHT22;6206;53.100;11.098;2022-07-09T00:30:49;16.20;99.90
12287;DHT22;6206;53.100;11.098;2022-07-09T00:33:15;19.90;99.90
12287;DHT22;6206;53.100;11.098;2022-07-09T00:35:42;19.00;99.90
12287;DHT22;6206;53.100;11.098;2022-07-09T00:38:10;19.70;99.90
12287;DHT22;6206;53.100;11.098;2022-07-09T00:40:37;15.90;99.90
12287;DHT22;6206;53.100;11.098;2022-07-09T00:43:03;15.90;99.90
12287;DHT22;6206;53.100;11.098;2022-07-09T00:45:40;16.00;99.90
12287;DHT22;6206;53.100;11.098;2022-07-09T00:48:07;16.00;99.90
12287;DHT22;6206;53.100;11.098;2022-07-09T00:50:34;16.70;99.90
12287;DHT22;6206;53.100;11.098;2022-07-09T00:53:00;16.90;99.90
12287;DHT22;6206;53.100;11.098;2022-07-09T00:55:29;16.10;99.90
12287;DHT22;6206;53.100;11.098;2022-07-09T00:57:55;16.20;99.90
12287;DHT22;6206;53.100;11.098;2022-07-09T01:00:22;16.10;99.90
12287;DHT22;6206;53.100;11.098;2022-07-09T01:02:49;16.10;99.90
12287;DHT22;6206;53.100;11.098;2022-07-09T01:05:15;16.40;99.90
12287;DHT22;6206;53.100;11.098;2022-07-09T01:07:42;17.50;99.90
12287;DHT22;6206;53.100;11.098;2022-07-09T01:10:09;16.30;99.90
12287;DHT22;6206;53.100;11.098;2022-07-09T01:12:38;16.40;99.90
12287;DHT22;6206;53.100;11.098;2022-07-09T01:15:05;16.40;99.90
12287;DHT22;6206;53.100;11.098;2022-07-09T01:17:37;16.30;99.90
12287;DHT22;6206;53.100;11.098;2022-07-09T01:20:04;16.30;99.90
12287;DHT22;6206;53.100;11.098;2022-07-09T01:22:32;16.10;99.90
12287;DHT22;6206;53.100;11.098;2022-07-09T01:25:00;16.30;99.90
12287;DHT22;6206;53.100;11.098;2022-07-09T01:27:27;16.20;99.90
12287;DHT22;6206;53.100;11.098;2022-07-09T01:29:54;17.60;99.90
12287;DHT22;6206;53.100;11.098;2022-07-09T01:32:20;15.90;99.90
12287;DHT22;6206;53.100;11.098;2022-07-09T01:34:47;15.90;99.90
12287;DHT22;6206;53.100;11.098;2022-07-09T01:37:14;15.80;99.90
12287;DHT22;6206;53.100;11.098;2022-07-09T01:39:42;16.10;99.90
12287;DHT22;6206;53.100;11.098;2022-07-09T01:42:16;20.70;99.90
12287;DHT22;6206;53.100;11.098;2022-07-09T01:44:44;16.00;99.90
12287;DHT22;6206;53.100;11.098;2022-07-09T01:47:11;16.00;99.90
12287;DHT22;6206;53.100;11.098;2022-07-09T01:49:40;16.20;99.90
12287;DHT22;6206;53.100;11.098;2022-07-09T01:52:07;16.30;99.90
12287;DHT22;6206;53.100;11.098;2022-07-09T01:54:34;16.40;99.90
12287;DHT22;6206;53.100;11.098;2022-07-09T01:57:02;16.20;99.90
12287;DHT22;6206;53.100;11.098;2022-07-09T01:59:29;16.20;99.90
12287;DHT22;6206;53.100;11.098;2022-07-09T02:01:56;16.10;99.90
12287;DHT22;6206;53.100;11.098;2022-07-09T02:04:22;16.20;99.90
12287;DHT22;6206;53.100;11.098;2022-07-09T02:06:49;16.20;99.90
12287;DHT22;6206;53.100;11.098;2022-07-09T02:09:16;16.30;99.90
12287;DHT22;6206;53.100;11.098;2022-07-09T02:11:43;16.30;99.90
12287;DHT22;6206;53.100;11.098;2022-07-09T02:14:11;16.80;99.90
12287;DHT22;6206;53.100;11.098;2022-07-09T02:16:37;18.90;99.90
12287;DHT22;6206;53.100;11.098;2022-07-09T02:19:04;16.00;99.90
12287;DHT22;6206;53.100;11.098;2022-07-09T02:21:31;19.80;99.90
12287;DHT22;6206;53.100;11.098;2022-07-09T02:23:58;18.80;99.90
12287;DHT22;6206;53.100;11.098;2022-07-09T02:26:25;17.00;99.90
12287;DHT22;6206;53.100;11.098;2022-07-09T02:28:53;15.90;99.90
12287;DHT22;6206;53.100;11.098;2022-07-09T02:31:21;15.70;99.90
12287;DHT22;6206;53.100;11.098;2022-07-09T02:33:48;15.80;99.90
12287;DHT22;6206;53.100;11.098;2022-07-09T02:36:15;15.90;99.90
12287;DHT22;6206;53.100;11.098;2022-07-09T02:38:41;16.00;99.90
12287;DHT22;6206;53.100;11.098;2022-07-09T02:41:08;15.90;99.90
12287;DHT22;6206;53.100;11.098;2022-07-09T02:43:34;15.80;99.90
12287;DHT22;6206;53.100;11.098;2022-07-09T02:46:01;18.10;99.90
12287;DHT22;6206;53.100;11.098;2022-07-09T02:48:30;15.80;99.90
12287;DHT22;6206;53.100;11.098;2022-07-09T02:50:57;16.00;99.90
12287;DHT22;6206;53.100;11.098;2022-07-09T02:53:25;15.80;99.90
12287;DHT22;6206;53.100;11.098;2022-07-09T02:55:52;15.70;99.90
12287;DHT22;6206;53.100;11.098;2022-07-09T02:58:19;15.60;99.90
12287;DHT22;6206;53.100;11.098;2022-07-09T03:00:46;15.70;99.90
12287;DHT22;6206;53.100;11.098;2022-07-09T03:03:13;15.50;99.90
12287;DHT22;6206;53.100;11.098;2022-07-09T03:08:09;15.60;99.90
12287;DHT22;6206;53.100;11.098;2022-07-09T03:10:36;15.40;99.90
12287;DHT22;6206;53.100;11.098;2022-07-09T03:13:02;15.60;99.90
12287;DHT22;6206;53.100;11.098;2022-07-09T03:15:29;15.50;99.90
12287;DHT22;6206;53.100;11.098;2022-07-09T03:17:56;15.70;99.90
12287;DHT22;6206;53.100;11.098;2022-07-09T03:20:23;15.60;99.90
12287;DHT22;6206;53.100;11.098;2022-07-09T03:22:52;15.70;99.90
12287;DHT22;6206;53.100;11.098;2022-07-09T03:25:19;15.70;99.90
12287;DHT22;6206;53.100;11.098;2022-07-09T03:27:46;15.70;99.90
12287;DHT22;6206;53.100;11.098;2022-07-09T03:30:12;16.30;99.90
12287;DHT22;6206;53.100;11.098;2022-07-09T03:32:39;15.80;99.90
12287;DHT22;6206;53.100;11.098;2022-07-09T03:35:06;15.90;99.90
12287;DHT22;6206;53.100;11.098;2022-07-09T03:37:33;15.90;99.90
12287;DHT22;6206;53.100;11.098;2022-07-09T03:40:02;15.70;99.90
12287;DHT22;6206;53.100;11.098;2022-07-09T03:42:28;15.70;99.90
12287;DHT22;6206;53.100;11.098;2022-07-09T03:44:55;15.80;99.90
12287;DHT22;6206;53.100;11.098;2022-07-09T03:47:22;15.80;99.90
12287;DHT22;6206;53.100;11.098;2022-07-09T03:49:48;15.90;99.90
12287;DHT22;6206;53.100;11.098;2022-07-09T03:52:15;15.80;99.90
12287;DHT22;6206;53.100;11.098;2022-07-09T03:54:42;19.80;99.90
12287;DHT22;6206;53.100;11.098;2022-07-09T03:57:10;15.80;99.90
12287;DHT22;6206;53.100;11.098;2022-07-09T03:59:37;15.90;99.90
12287;DHT22;6206;53.100;11.098;2022-07-09T04:02:04;16.00;99.90
12287;DHT22;6206;53.100;11.098;2022-07-09T04:04:31;15.80;99.90
12287;DHT22;6206;53.100;11.098;2022-07-09T04:06:57;15.90;99.90
12287;DHT22;6206;53.100;11.098;2022-07-09T04:09:24;15.90;99.90
12287;DHT22;6206;53.100;11.098;2022-07-09T04:11:51;15.90;99.90
12287;DHT22;6206;53.100;11.098;2022-07-09T04:14:19;19.60;99.90
12287;DHT22;6206;53.100;11.098;2022-07-09T04:16:46;15.90;99.90
12287;DHT22;6206;53.100;11.098;2022-07-09T04:19:12;16.00;99.90
12287;DHT22;6206;53.100;11.098;2022-07-09T04:21:39;16.00;99.90
12287;DHT22;6206;53.100;11.098;2022-07-09T04:24:06;18.20;99.90
12287;DHT22;6206;53.100;11.098;2022-07-09T04:26:33;19.50;99.90
12287;DHT22;6206;53.100;11.098;2022-07-09T04:29:00;15.90;99.90
12287;DHT22;6206;53.100;11.098;2022-07-09T04:31:28;17.40;99.90
12287;DHT22;6206;53.100;11.098;2022-07-09T04:33:54;18.80;99.90
12287;DHT22;6206;53.100;11.098;2022-07-09T04:36:21;16.00;99.90
12287;DHT22;6206;53.100;11.098;2022-07-09T04:38:48;15.90;99.90
12287;DHT22;6206;53.100;11.098;2022-07-09T04:41:15;17.80;99.90
12287;DHT22;6206;53.100;11.098;2022-07-09T04:43:41;16.00;99.90
12287;DHT22;6206;53.100;11.098;2022-07-09T04:46:08;16.10;99.90
12287;DHT22;6206;53.100;11.098;2022-07-09T04:48:37;16.20;99.90
12287;DHT22;6206;53.100;11.098;2022-07-09T04:51:04;16.30;99.90
12287;DHT22;6206;53.100;11.098;2022-07-09T04:53:30;16.10;99.90
12287;DHT22;6206;53.100;11.098;2022-07-09T04:55:57;16.10;99.90
12287;DHT22;6206;53.100;11.098;2022-07-09T04:58:24;16.10;99.90
12287;DHT22;6206;53.100;11.098;2022-07-09T05:00:51;16.10;99.90
12287;DHT22;6206;53.100;11.098;2022-07-09T05:03:17;16.10;99.90
12287;DHT22;6206;53.100;11.098;2022-07-09T05:05:45;16.10;99.90
12287;DHT22;6206;53.100;11.098;2022-07-09T05:08:12;16.00;99.90
12287;DHT22;6206;53.100;11.098;2022-07-09T05:10:39;16.00;99.90
12287;DHT22;6206;53.100;11.098;2022-07-09T05:13:05;17.70;99.90
12287;DHT22;6206;53.100;11.098;2022-07-09T05:15:32;16.20;99.90
12287;DHT22;6206;53.100;11.098;2022-07-09T05:17:59;16.40;99.90
12287;DHT22;6206;53.100;11.098;2022-07-09T05:20:26;16.40;99.90
12287;DHT22;6206;53.100;11.098;2022-07-09T05:22:54;16.40;99.90
12287;DHT22;6206;53.100;11.098;2022-07-09T05:25:21;16.20;99.90
12287;DHT22;6206;53.100;11.098;2022-07-09T05:27:48;16.20;99.90
12287;DHT22;6206;53.100;11.098;2022-07-09T05:30:15;16.50;99.90
12287;DHT22;6206;53.100;11.098;2022-07-09T05:32:42;16.90;99.90
12287;DHT22;6206;53.100;11.098;2022-07-09T05:35:09;17.20;99.90
12287;DHT22;6206;53.100;11.098;2022-07-09T05:37:40;17.40;99.90
12287;DHT22;6206;53.100;11.098;2022-07-09T05:40:10;17.20;99.90
12287;DHT22;6206;53.100;11.098;2022-07-09T05:42:37;17.10;99.90
12287;DHT22;6206;53.100;11.098;2022-07-09T05:45:05;17.10;99.90
12287;DHT22;6206;53.100;11.098;2022-07-09T05:47:33;17.30;99.90
12287;DHT22;6206;53.100;11.098;2022-07-09T05:49:59;17.40;99.90
12287;DHT22;6206;53.100;11.098;2022-07-09T05:52:26;17.10;99.90
12287;DHT22;6206;53.100;11.098;2022-07-09T05:54:53;17.00;99.90
12287;DHT22;6206;53.100;11.098;2022-07-09T05:57:21;17.10;99.90
12287;DHT22;6206;53.100;11.098;2022-07-09T05:59:48;17.20;99.90
12287;DHT22;6206;53.100;11.098;2022-07-09T06:02:15;17.30;99.90
12287;DHT22;6206;53.100;11.098;2022-07-09T06:04:42;17.30;99.90
12287;DHT22;6206;53.100;11.098;2022-07-09T06:07:09;17.40;99.90
12287;DHT22;6206;53.100;11.098;2022-07-09T06:09:36;17.50;99.90
12287;DHT22;6206;53.100;11.098;2022-07-09T06:12:04;17.50;99.90
12287;DHT22;6206;53.100;11.098;2022-07-09T06:14:32;17.30;99.90
12287;DHT22;6206;53.100;11.098;2022-07-09T06:16:59;17.50;99.90
12287;DHT22;6206;53.100;11.098;2022-07-09T06:19:31;17.50;99.90
12287;DHT22;6206;53.100;11.098;2022-07-09T06:21:58;17.50;99.90
12287;DHT22;6206;53.100;11.098;2022-07-09T06:24:28;17.50;99.90
12287;DHT22;6206;53.100;11.098;2022-07-09T06:26:55;17.80;99.90
12287;DHT22;6206;53.100;11.098;2022-07-09T06:29:23;17.80;99.90
12287;DHT22;6206;53.100;11.098;2022-07-09T06:31:51;18.40;99.90
12287;DHT22;6206;53.100;11.098;2022-07-09T06:34:18;20.90;99.90
12287;DHT22;6206;53.100;11.098;2022-07-09T06:36:45;18.50;99.90
12287;DHT22;6206;53.100;11.098;2022-07-09T06:39:12;18.20;99.90
12287;DHT22;6206;53.100;11.098;2022-07-09T06:42:03;18.00;99.90
12287;DHT22;6206;53.100;11.098;2022-07-09T06:44:30;18.00;99.90
12287;DHT22;6206;53.100;11.098;2022-07-09T06:46:58;18.90;99.90
12287;DHT22;6206;53.100;11.098;2022-07-09T06:49:25;17.90;99.90
12287;DHT22;6206;53.100;11.098;2022-07-09T06:51:51;18.20;99.90
12287;DHT22;6206;53.100;11.098;2022-07-09T06:54:18;18.30;99.90
12287;DHT22;6206;53.100;11.098;2022-07-09T06:56:45;18.20;99.90
12287;DHT22;6206;53.100;11.098;2022-07-09T06:59:11;18.10;99.90
12287;DHT22;6206;53.100;11.098;2022-07-09T07:01:38;18.00;99.90
12287;DHT22;6206;53.100;11.098;2022-07-09T07:04:06;18.20;99.90
12287;DHT22;6206;53.100;11.098;2022-07-09T07:06:33;18.10;99.90
12287;DHT22;6206;53.100;11.098;2022-07-09T07:09:00;18.10;99.90
12287;DHT22;6206;53.100;11.098;2022-07-09T07:11:28;18.00;99.90
12287;DHT22;6206;53.100;11.098;2022-07-09T07:13:54;18.10;99.90
12287;DHT22;6206;53.100;11.098;2022-07-09T07:16:21;18.00;99.90
12287;DHT22;6206;53.100;11.098;2022-07-09T07:18:47;18.10;99.90
12287;DHT22;6206;53.100;11.098;2022-07-09T07:21:15;19.50;99.90
12287;DHT22;6206;53.100;11.098;2022-07-09T07:23:42;17.90;99.90
12287;DHT22;6206;53.100;11.098;2022-07-09T07:26:09;18.20;99.90
12287;DHT22;6206;53.100;11.098;2022-07-09T07:28:35;18.50;99.90
12287;DHT22;6206;53.100;11.098;2022-07-09T07:31:02;18.50;99.90
12287;DHT22;6206;53.100;11.098;2022-07-09T07:33:29;18.50;99.90
12287;DHT22;6206;53.100;11.098;2022-07-09T07:35:56;20.50;99.90
12287;DHT22;6206;53.100;11.098;2022-07-09T07:38:24;18.60;99.90
12287;DHT22;6206;53.100;11.098;2022-07-09T07:40:53;21.00;99.90
12287;DHT22;6206;53.100;11.098;2022-07-09T07:43:19;22.20;99.90
12287;DHT22;6206;53.100;11.098;2022-07-09T07:45:46;20.60;99.90
12287;DHT22;6206;53.100;11.098;2022-07-09T07:48:13;21.50;99.90
12287;DHT22;6206;53.100;11.098;2022-07-09T07:50:39;18.80;99.90
12287;DHT22;6206;53.100;11.098;2022-07-09T07:53:06;22.40;99.90
12287;DHT22;6206;53.100;11.098;2022-07-09T07:55:34;21.50;99.90
12287;DHT22;6206;53.100;11.098;2022-07-09T07:58:01;19.00;99.90
12287;DHT22;6206;53.100;11.098;2022-07-09T08:00:28;18.80;99.90
12287;DHT22;6206;53.100;11.098;2022-07-09T08:02:54;20.80;99.90
12287;DHT22;6206;53.100;11.098;2022-07-09T08:05:21;20.30;99.90
12287;DHT22;6206;53.100;11.098;2022-07-09T08:07:48;21.90;99.90
12287;DHT22;6206;53.100;11.098;2022-07-09T08:10:14;22.10;99.90
12287;DHT22;6206;53.100;11.098;2022-07-09T08:12:42;19.10;99.90
12287;DHT22;6206;53.100;11.098;2022-07-09T08:15:09;18.70;99.90
12287;DHT22;6206;53.100;11.098;2022-07-09T08:20:04;18.40;99.90
12287;DHT22;6206;53.100;11.098;2022-07-09T08:22:31;18.80;99.90
12287;DHT22;6206;53.100;11.098;2022-07-09T08:24:58;19.00;99.90
12287;DHT22;6206;53.100;11.098;2022-07-09T08:27:25;20.10;99.90
12287;DHT22;6206;53.100;11.098;2022-07-09T08:29:53;19.00;99.90
12287;DHT22;6206;53.100;11.098;2022-07-09T08:32:20;22.20;99.90
12287;DHT22;6206;53.100;11.098;2022-07-09T08:34:47;22.90;99.90
12287;DHT22;6206;53.100;11.098;2022-07-09T08:37:13;21.60;99.90
12287;DHT22;6206;53.100;11.098;2022-07-09T08:39:40;19.40;99.90
12287;DHT22;6206;53.100;11.098;2022-07-09T08:42:08;19.60;99.90
12287;DHT22;6206;53.100;11.098;2022-07-09T08:44:38;19.20;99.90
12287;DHT22;6206;53.100;11.098;2022-07-09T08:47:10;20.10;99.90
12287;DHT22;6206;53.100;11.098;2022-07-09T08:49:37;21.00;99.90
12287;DHT22;6206;53.100;11.098;2022-07-09T08:52:06;21.00;99.90
12287;DHT22;6206;53.100;11.098;2022-07-09T08:54:34;18.60;99.90
12287;DHT22;6206;53.100;11.098;2022-07-09T08:57:03;18.50;99.90
12287;DHT22;6206;53.100;11.098;2022-07-09T08:59:30;18.30;99.90
12287;DHT22;6206;53.100;11.098;2022-07-09T09:01:57;18.30;99.90
12287;DHT22;6206;53.100;11.098;2022-07-09T09:04:25;18.30;99.90
12287;DHT22;6206;53.100;11.098;2022-07-09T09:06:52;18.50;99.90
12287;DHT22;6206;53.100;11.098;2022-07-09T09:09:19;20.80;99.90
12287;DHT22;6206;53.100;11.098;2022-07-09T09:11:47;20.80;99.90
12287;DHT22;6206;53.100;11.098;2022-07-09T09:14:20;18.90;99.90
12287;DHT22;6206;53.100;11.098;2022-07-09T09:16:47;18.90;99.90
12287;DHT22;6206;53.100;11.098;2022-07-09T09:19:14;20.90;99.90
12287;DHT22;6206;53.100;11.098;2022-07-09T09:21:42;21.40;99.90
12287;DHT22;6206;53.100;11.098;2022-07-09T09:24:09;19.20;99.90
12287;DHT22;6206;53.100;11.098;2022-07-09T09:26:36;19.30;99.90
12287;DHT22;6206;53.100;11.098;2022-07-09T09:29:03;19.90;99.90
12287;DHT22;6206;53.100;11.098;2022-07-09T09:31:31;21.50;99.90
12287;DHT22;6206;53.100;11.098;2022-07-09T09:34:10;21.10;99.90
12287;DHT22;6206;53.100;11.098;2022-07-09T09:36:38;20.10;99.90
12287;DHT22;6206;53.100;11.098;2022-07-09T09:39:11;20.20;99.90
12287;DHT22;6206;53.100;11.098;2022-07-09T09:41:40;21.90;99.90
12287;DHT22;6206;53.100;11.098;2022-07-09T09:44:07;21.40;99.90
12287;DHT22;6206;53.100;11.098;2022-07-09T09:46:36;21.70;99.90
12287;DHT22;6206;53.100;11.098;2022-07-09T09:49:03;22.00;99.90
12287;DHT22;6206;53.100;11.098;2022-07-09T09:51:35;22.60;99.90
12287;DHT22;6206;53.100;11.098;2022-07-09T09:54:03;20.70;99.90
12287;DHT22;6206;53.100;11.098;2022-07-09T09:56:32;21.40;99.90
12287;DHT22;6206;53.100;11.098;2022-07-09T09:58:59;20.70;99.90
12287;DHT22;6206;53.100;11.098;2022-07-09T10:01:28;21.80;99.90
12287;DHT22;6206;53.100;11.098;2022-07-09T10:03:55;20.80;99.90
12287;DHT22;6206;53.100;11.098;2022-07-09T10:06:22;20.90;99.90
12287;DHT22;6206;53.100;11.098;2022-07-09T10:08:50;21.00;99.90
12287;DHT22;6206;53.100;11.098;2022-07-09T10:11:17;20.70;99.90
12287;DHT22;6206;53.100;11.098;2022-07-09T10:13:52;21.30;99.90
12287;DHT22;6206;53.100;11.098;2022-07-09T10:16:34;21.20;99.90
12287;DHT22;6206;53.100;11.098;2022-07-09T10:19:02;20.40;99.90
12287;DHT22;6206;53.100;11.098;2022-07-09T10:21:36;21.40;99.90
12287;DHT22;6206;53.100;11.098;2022-07-09T10:24:04;20.70;99.90
12287;DHT22;6206;53.100;11.098;2022-07-09T10:26:44;20.70;99.90
12287;DHT22;6206;53.100;11.098;2022-07-09T10:29:25;20.60;99.90
12287;DHT22;6206;53.100;11.098;2022-07-09T10:31:52;20.50;99.90
12287;DHT22;6206;53.100;11.098;2022-07-09T10:34:43;22.60;99.90
12287;DHT22;6206;53.100;11.098;2022-07-09T10:37:15;19.90;99.90
12287;DHT22;6206;53.100;11.098;2022-07-09T10:39:52;22.20;99.90
12287;DHT22;6206;53.100;11.098;2022-07-09T10:42:20;22.20;99.90
12287;DHT22;6206;53.100;11.098;2022-07-09T10:44:50;21.60;99.90
12287;DHT22;6206;53.100;11.098;2022-07-09T10:47:19;22.20;99.90
12287;DHT22;6206;53.100;11.098;2022-07-09T10:49:46;20.50;99.90
12287;DHT22;6206;53.100;11.098;2022-07-09T10:52:13;20.60;99.90
12287;DHT22;6206;53.100;11.098;2022-07-09T10:54:46;22.70;99.90
12287;DHT22;6206;53.100;11.098;2022-07-09T10:57:14;22.40;99.90
12287;DHT22;6206;53.100;11.098;2022-07-09T10:59:45;22.80;99.90
12287;DHT22;6206;53.100;11.098;2022-07-09T11:02:19;20.80;99.90
12287;DHT22;6206;53.100;11.098;2022-07-09T11:04:48;20.80;99.90
12287;DHT22;6206;53.100;11.098;2022-07-09T11:07:19;21.80;99.90
12287;DHT22;6206;53.100;11.098;2022-07-09T11:09:47;20.80;99.90
12287;DHT22;6206;53.100;11.098;2022-07-09T11:12:15;23.40;99.90
12287;DHT22;6206;53.100;11.098;2022-07-09T11:14:45;21.40;99.90
12287;DHT22;6206;53.100;11.098;2022-07-09T11:17:14;22.40;99.90
12287;DHT22;6206;53.100;11.098;2022-07-09T11:19:42;20.10;99.90
12287;DHT22;6206;53.100;11.098;2022-07-09T11:22:09;21.60;99.90
12287;DHT22;6206;53.100;11.098;2022-07-09T11:24:36;21.60;99.90
12287;DHT22;6206;53.100;11.098;2022-07-09T11:27:04;22.70;99.90
12287;DHT22;6206;53.100;11.098;2022-07-09T11:29:31;21.90;99.90
12287;DHT22;6206;53.100;11.098;2022-07-09T11:31:57;21.50;99.90
12287;DHT22;6206;53.100;11.098;2022-07-09T11:34:24;22.10;99.90
12287;DHT22;6206;53.100;11.098;2022-07-09T11:36:54;23.50;99.90
12287;DHT22;6206;53.100;11.098;2022-07-09T11:39:23;21.10;99.90
12287;DHT22;6206;53.100;11.098;2022-07-09T11:41:50;20.80;99.90
12287;DHT22;6206;53.100;11.098;2022-07-09T11:44:21;23.10;99.90
12287;DHT22;6206;53.100;11.098;2022-07-09T11:47:00;21.60;99.90
12287;DHT22;6206;53.100;11.098;2022-07-09T11:49:32;20.50;99.90
12287;DHT22;6206;53.100;11.098;2022-07-09T11:52:00;20.40;99.90
12287;DHT22;6206;53.100;11.098;2022-07-09T11:54:27;20.50;99.90
12287;DHT22;6206;53.100;11.098;2022-07-09T11:56:55;23.10;99.90
12287;DHT22;6206;53.100;11.098;2022-07-09T11:59:26;20.60;99.90
12287;DHT22;6206;53.100;11.098;2022-07-09T12:01:53;22.30;99.90
12287;DHT22;6206;53.100;11.098;2022-07-09T12:04:20;23.00;99.90
12287;DHT22;6206;53.100;11.098;2022-07-09T12:06:48;21.10;99.90
12287;DHT22;6206;53.100;11.098;2022-07-09T12:09:27;22.80;99.90
12287;DHT22;6206;53.100;11.098;2022-07-09T12:11:54;21.20;99.90
12287;DHT22;6206;53.100;11.098;2022-07-09T12:14:21;21.30;99.90
12287;DHT22;6206;53.100;11.098;2022-07-09T12:16:47;23.50;99.90
12287;DHT22;6206;53.100;11.098;2022-07-09T12:19:14;21.80;99.90
12287;DHT22;6206;53.100;11.098;2022-07-09T12:21:41;21.80;99.90
12287;DHT22;6206;53.100;11.098;2022-07-09T12:24:08;22.00;99.90
12287;DHT22;6206;53.100;11.098;2022-07-09T12:26:36;22.10;99.90
12287;DHT22;6206;53.100;11.098;2022-07-09T12:29:03;22.50;99.90
12287;DHT22;6206;53.100;11.098;2022-07-09T12:31:29;22.30;99.90
12287;DHT22;6206;53.100;11.098;2022-07-09T12:33:56;21.80;99.90
12287;DHT22;6206;53.100;11.098;2022-07-09T12:36:23;21.60;99.90
12287;DHT22;6206;53.100;11.098;2022-07-09T12:38:49;21.60;99.90
12287;DHT22;6206;53.100;11.098;2022-07-09T12:41:16;20.00;99.90
12287;DHT22;6206;53.100;11.098;2022-07-09T12:43:44;21.70;99.90
12287;DHT22;6206;53.100;11.098;2022-07-09T12:46:11;21.90;99.90
12287;DHT22;6206;53.100;11.098;2022-07-09T12:48:37;26.70;99.90
12287;DHT22;6206;53.100;11.098;2022-07-09T12:51:04;21.60;99.90
12287;DHT22;6206;53.100;11.098;2022-07-09T12:53:31;21.50;99.90
12287;DHT22;6206;53.100;11.098;2022-07-09T12:55:58;21.30;99.90
12287;DHT22;6206;53.100;11.098;2022-07-09T12:58:24;21.70;99.90
12287;DHT22;6206;53.100;11.098;2022-07-09T13:00:52;21.10;99.90
12287;DHT22;6206;53.100;11.098;2022-07-09T13:03:19;22.10;99.90
12287;DHT22;6206;53.100;11.098;2022-07-09T13:05:46;22.20;99.90
12287;DHT22;6206;53.100;11.098;2022-07-09T13:08:12;22.30;99.90
12287;DHT22;6206;53.100;11.098;2022-07-09T13:10:39;22.70;99.90
12287;DHT22;6206;53.100;11.098;2022-07-09T13:13:06;22.90;99.90
12287;DHT22;6206;53.100;11.098;2022-07-09T13:15:34;23.20;99.90
12287;DHT22;6206;53.100;11.098;2022-07-09T13:18:02;24.10;99.90
12287;DHT22;6206;53.100;11.098;2022-07-09T13:20:28;23.60;99.90
12287;DHT22;6206;53.100;11.098;2022-07-09T13:22:55;24.10;99.90
12287;DHT22;6206;53.100;11.098;2022-07-09T13:25:22;25.10;99.90
12287;DHT22;6206;53.100;11.098;2022-07-09T13:27:48;24.70;99.90
12287;DHT22;6206;53.100;11.098;2022-07-09T13:30:15;24.50;99.90
12287;DHT22;6206;53.100;11.098;2022-07-09T13:32:46;24.30;99.90
12287;DHT22;6206;53.100;11.098;2022-07-09T13:35:14;24.80;99.90
12287;DHT22;6206;53.100;11.098;2022-07-09T13:37:41;25.80;99.90
12287;DHT22;6206;53.100;11.098;2022-07-09T13:40:08;26.20;99.90
12287;DHT22;6206;53.100;11.098;2022-07-09T13:42:36;25.70;99.90
12287;DHT22;6206;53.100;11.098;2022-07-09T13:45:03;25.80;99.90
12287;DHT22;6206;53.100;11.098;2022-07-09T13:47:30;24.90;99.90
12287;DHT22;6206;53.100;11.098;2022-07-09T13:49:57;24.10;99.90
12287;DHT22;6206;53.100;11.098;2022-07-09T13:52:25;24.40;99.90
12287;DHT22;6206;53.100;11.098;2022-07-09T13:54:52;22.70;99.90
12287;DHT22;6206;53.100;11.098;2022-07-09T13:57:18;21.70;99.90
12287;DHT22;6206;53.100;11.098;2022-07-09T13:59:45;21.50;99.90
12287;DHT22;6206;53.100;11.098;2022-07-09T14:02:12;21.60;99.90
12287;DHT22;6206;53.100;11.098;2022-07-09T14:04:38;22.80;99.90
12287;DHT22;6206;53.100;11.098;2022-07-09T14:07:05;23.50;99.90
12287;DHT22;6206;53.100;11.098;2022-07-09T14:09:33;24.00;99.90
12287;DHT22;6206;53.100;11.098;2022-07-09T14:12:01;24.60;99.90
12287;DHT22;6206;53.100;11.098;2022-07-09T14:14:28;26.20;99.90
12287;DHT22;6206;53.100;11.098;2022-07-09T14:16:55;26.00;99.90
12287;DHT22;6206;53.100;11.098;2022-07-09T14:19:21;26.50;99.90
12287;DHT22;6206;53.100;11.098;2022-07-09T14:21:48;27.00;99.90
12287;DHT22;6206;53.100;11.098;2022-07-09T14:24:15;26.90;99.90
12287;DHT22;6206;53.100;11.098;2022-07-09T14:26:43;26.10;99.90
12287;DHT22;6206;53.100;11.098;2022-07-09T14:29:11;24.80;99.90
12287;DHT22;6206;53.100;11.098;2022-07-09T14:31:38;25.00;99.90
12287;DHT22;6206;53.100;11.098;2022-07-09T14:34:04;25.10;99.90
12287;DHT22;6206;53.100;11.098;2022-07-09T14:36:31;25.10;99.90
12287;DHT22;6206;53.100;11.098;2022-07-09T14:38:58;26.80;99.90
12287;DHT22;6206;53.100;11.098;2022-07-09T14:41:27;27.80;99.90
12287;DHT22;6206;53.100;11.098;2022-07-09T14:43:55;28.10;99.90
12287;DHT22;6206;53.100;11.098;2022-07-09T14:46:22;25.80;99.90
12287;DHT22;6206;53.100;11.098;2022-07-09T14:48:48;25.80;99.90
12287;DHT22;6206;53.100;11.098;2022-07-09T14:51:15;26.40;99.90
12287;DHT22;6206;53.100;11.098;2022-07-09T14:53:42;27.20;99.90
12287;DHT22;6206;53.100;11.098;2022-07-09T14:56:08;26.90;99.90
12287;DHT22;6206;53.100;11.098;2022-07-09T14:58:35;24.80;99.90
12287;DHT22;6206;53.100;11.098;2022-07-09T15:01:04;23.10;99.90
12287;DHT22;6206;53.100;11.098;2022-07-09T15:03:31;22.70;99.90
12287;DHT22;6206;53.100;11.098;2022-07-09T15:05:57;22.60;99.90
12287;DHT22;6206;53.100;11.098;2022-07-09T15:08:24;23.30;99.90
12287;DHT22;6206;53.100;11.098;2022-07-09T15:10:53;22.90;99.90
12287;DHT22;6206;53.100;11.098;2022-07-09T15:13:20;23.60;99.90
12287;DHT22;6206;53.100;11.098;2022-07-09T15:15:47;24.90;99.90
12287;DHT22;6206;53.100;11.098;2022-07-09T15:18:15;26.70;99.90
12287;DHT22;6206;53.100;11.098;2022-07-09T15:20:42;27.00;99.90
12287;DHT22;6206;53.100;11.098;2022-07-09T15:23:09;25.20;99.90
12287;DHT22;6206;53.100;11.098;2022-07-09T15:25:36;23.20;99.90
12287;DHT22;6206;53.100;11.098;2022-07-09T15:28:03;22.80;99.90
12287;DHT22;6206;53.100;11.098;2022-07-09T15:30:30;21.60;99.90
12287;DHT22;6206;53.100;11.098;2022-07-09T15:32:57;22.70;99.90
12287;DHT22;6206;53.100;11.098;2022-07-09T15:35:25;20.10;99.90
12287;DHT22;6206;53.100;11.098;2022-07-09T15:37:54;24.90;99.90